sensor_id;sensor_type;location;lat;lon;timestamp;P1;durP1;ratioP1;P2;durP2;ratioP2
18455;SDS011;9357;49.900;8.208;2022-08-01T00:00:36;1.37;;;1.33;;
18455;SDS011;9357;49.900;8.208;2022-08-01T00:02:09;1.53;;;1.43;;
18455;SDS011;9357;49.900;8.208;2022-08-01T00:03:42;1.40;;;1.30;;
18455;SDS011;9357;49.900;8.208;2022-08-01T00:05:15;1.40;;;1.30;;
18455;SDS011;9357;49.900;8.208;2022-08-01T00:06:48;2.20;;;1.50;;
18455;SDS011;9357;49.900;8.208;2022-08-01T00:08:21;1.10;;;1.10;;
18455;SDS011;9357;49.900;8.208;2022-08-01T00:09:53;3.07;;;1.53;;
18455;SDS011;9357;49.900;8.208;2022-08-01T00:11:27;1.40;;;1.30;;
18455;SDS011;9357;49.900;8.208;2022-08-01T00:13:00;2.50;;;1.40;;
18455;SDS011;9357;49.900;8.208;2022-08-01T00:14:32;2.57;;;1.67;;
18455;SDS011;9357;49.900;8.208;2022-08-01T00:16:04;1.87;;;1.60;;
18455;SDS011;9357;49.900;8.208;2022-08-01T00:17:37;2.53;;;1.50;;
18455;SDS011;9357;49.900;8.208;2022-08-01T00:19:11;1.70;;;1.60;;
18455;SDS011;9357;49.900;8.208;2022-08-01T00:20:43;1.70;;;1.43;;
18455;SDS011;9357;49.900;8.208;2022-08-01T00:22:16;1.30;;;1.20;;
18455;SDS011;9357;49.900;8.208;2022-08-01T00:23:49;2.70;;;1.43;;
18455;SDS011;9357;49.900;8.208;2022-08-01T00:25:22;1.50;;;1.40;;
18455;SDS011;9357;49.900;8.208;2022-08-01T00:27:06;1.50;;;1.40;;
18455;SDS011;9357;49.900;8.208;2022-08-01T00:28:38;1.37;;;1.30;;
18455;SDS011;9357;49.900;8.208;2022-08-01T00:30:11;1.27;;;1.13;;
18455;SDS011;9357;49.900;8.208;2022-08-01T00:31:45;1.47;;;1.37;;
18455;SDS011;9357;49.900;8.208;2022-08-01T00:33:18;1.40;;;1.30;;
18455;SDS011;9357;49.900;8.208;2022-08-01T00:34:51;1.83;;;1.20;;
18455;SDS011;9357;49.900;8.208;2022-08-01T00:36:24;1.53;;;1.40;;
18455;SDS011;9357;49.900;8.208;2022-08-01T00:37:57;1.70;;;1.30;;
18455;SDS011;9357;49.900;8.208;2022-08-01T00:39:29;1.40;;;1.20;;
18455;SDS011;9357;49.900;8.208;2022-08-01T00:41:03;2.43;;;1.27;;
18455;SDS011;9357;49.900;8.208;2022-08-01T00:42:37;1.53;;;1.43;;
18455;SDS011;9357;49.900;8.208;2022-08-01T00:44:14;1.63;;;1.40;;
18455;SDS011;9357;49.900;8.208;2022-08-01T00:45:47;1.33;;;1.20;;
18455;SDS011;9357;49.900;8.208;2022-08-01T00:47:19;1.50;;;1.27;;
18455;SDS011;9357;49.900;8.208;2022-08-01T00:48:53;1.20;;;1.20;;
18455;SDS011;9357;49.900;8.208;2022-08-01T00:50:26;1.63;;;1.37;;
18455;SDS011;9357;49.900;8.208;2022-08-01T00:51:58;1.37;;;1.27;;
18455;SDS011;9357;49.900;8.208;2022-08-01T00:53:32;1.23;;;1.20;;
18455;SDS011;9357;49.900;8.208;2022-08-01T00:55:22;1.70;;;1.17;;
18455;SDS011;9357;49.900;8.208;2022-08-01T00:56:55;2.13;;;1.37;;
18455;SDS011;9357;49.900;8.208;2022-08-01T00:58:29;1.17;;;1.17;;
18455;SDS011;9357;49.900;8.208;2022-08-01T01:00:03;1.93;;;1.17;;
18455;SDS011;9357;49.900;8.208;2022-08-01T01:01:38;1.40;;;1.30;;
18455;SDS011;9357;49.900;8.208;2022-08-01T01:03:16;1.37;;;1.10;;
18455;SDS011;9357;49.900;8.208;2022-08-01T01:04:49;1.83;;;1.30;;
18455;SDS011;9357;49.900;8.208;2022-08-01T01:06:25;2.17;;;1.30;;
18455;SDS011;9357;49.900;8.208;2022-08-01T01:08:02;1.20;;;1.20;;
18455;SDS011;9357;49.900;8.208;2022-08-01T01:09:42;1.30;;;1.30;;
18455;SDS011;9357;49.900;8.208;2022-08-01T01:11:25;1.20;;;1.20;;
18455;SDS011;9357;49.900;8.208;2022-08-01T01:13:02;2.10;;;1.33;;
18455;SDS011;9357;49.900;8.208;2022-08-01T01:14:41;1.23;;;1.13;;
18455;SDS011;9357;49.900;8.208;2022-08-01T01:16:18;2.40;;;1.20;;
18455;SDS011;9357;49.900;8.208;2022-08-01T01:17:52;1.20;;;1.17;;
18455;SDS011;9357;49.900;8.208;2022-08-01T01:19:30;1.80;;;1.23;;
18455;SDS011;9357;49.900;8.208;2022-08-01T01:21:07;1.10;;;1.10;;
18455;SDS011;9357;49.900;8.208;2022-08-01T01:22:59;1.37;;;1.20;;
18455;SDS011;9357;49.900;8.208;2022-08-01T01:24:45;1.30;;;1.20;;
18455;SDS011;9357;49.900;8.208;2022-08-01T01:26:31;1.27;;;1.17;;
18455;SDS011;9357;49.900;8.208;2022-08-01T01:28:14;1.60;;;1.17;;
18455;SDS011;9357;49.900;8.208;2022-08-01T01:29:54;2.33;;;1.40;;
18455;SDS011;9357;49.900;8.208;2022-08-01T01:31:32;1.10;;;1.10;;
18455;SDS011;9357;49.900;8.208;2022-08-01T01:33:12;1.73;;;1.40;;
18455;SDS011;9357;49.900;8.208;2022-08-01T01:34:47;1.23;;;1.13;;
18455;SDS011;9357;49.900;8.208;2022-08-01T01:36:22;1.37;;;1.33;;
18455;SDS011;9357;49.900;8.208;2022-08-01T01:38:00;1.43;;;1.30;;
18455;SDS011;9357;49.900;8.208;2022-08-01T01:39:40;1.43;;;1.20;;
18455;SDS011;9357;49.900;8.208;2022-08-01T01:41:24;1.43;;;1.10;;
18455;SDS011;9357;49.900;8.208;2022-08-01T01:42:59;1.33;;;1.23;;
18455;SDS011;9357;49.900;8.208;2022-08-01T01:44:32;1.40;;;1.30;;
18455;SDS011;9357;49.900;8.208;2022-08-01T01:46:09;1.53;;;1.30;;
18455;SDS011;9357;49.900;8.208;2022-08-01T01:47:44;1.30;;;1.20;;
18455;SDS011;9357;49.900;8.208;2022-08-01T01:49:19;1.80;;;1.10;;
18455;SDS011;9357;49.900;8.208;2022-08-01T01:50:53;1.87;;;1.10;;
18455;SDS011;9357;49.900;8.208;2022-08-01T01:52:27;1.10;;;1.10;;
18455;SDS011;9357;49.900;8.208;2022-08-01T01:54:01;1.67;;;1.20;;
18455;SDS011;9357;49.900;8.208;2022-08-01T01:55:36;2.20;;;1.27;;
18455;SDS011;9357;49.900;8.208;2022-08-01T01:57:20;1.30;;;1.20;;
18455;SDS011;9357;49.900;8.208;2022-08-01T01:58:54;1.57;;;1.13;;
18455;SDS011;9357;49.900;8.208;2022-08-01T02:00:29;1.30;;;1.17;;
18455;SDS011;9357;49.900;8.208;2022-08-01T02:02:04;2.67;;;1.13;;
18455;SDS011;9357;49.900;8.208;2022-08-01T02:03:38;1.40;;;0.97;;
18455;SDS011;9357;49.900;8.208;2022-08-01T02:05:13;1.40;;;1.10;;
18455;SDS011;9357;49.900;8.208;2022-08-01T02:06:46;1.53;;;1.40;;
18455;SDS011;9357;49.900;8.208;2022-08-01T02:08:21;1.87;;;1.30;;
18455;SDS011;9357;49.900;8.208;2022-08-01T02:09:55;1.13;;;1.10;;
18455;SDS011;9357;49.900;8.208;2022-08-01T02:11:29;1.50;;;1.40;;
18455;SDS011;9357;49.900;8.208;2022-08-01T02:13:02;1.40;;;1.30;;
18455;SDS011;9357;49.900;8.208;2022-08-01T02:14:37;1.30;;;1.20;;
18455;SDS011;9357;49.900;8.208;2022-08-01T02:16:11;1.40;;;1.30;;
18455;SDS011;9357;49.900;8.208;2022-08-01T02:17:46;1.57;;;1.47;;
18455;SDS011;9357;49.900;8.208;2022-08-01T02:19:21;1.67;;;1.30;;
18455;SDS011;9357;49.900;8.208;2022-08-01T02:20:54;1.43;;;1.33;;
18455;SDS011;9357;49.900;8.208;2022-08-01T02:22:31;1.30;;;1.30;;
18455;SDS011;9357;49.900;8.208;2022-08-01T02:24:07;1.77;;;1.10;;
18455;SDS011;9357;49.900;8.208;2022-08-01T02:25:44;1.70;;;1.30;;
18455;SDS011;9357;49.900;8.208;2022-08-01T02:27:41;1.40;;;1.30;;
18455;SDS011;9357;49.900;8.208;2022-08-01T02:29:19;1.70;;;1.27;;
18455;SDS011;9357;49.900;8.208;2022-08-01T02:30:56;1.53;;;1.30;;
18455;SDS011;9357;49.900;8.208;2022-08-01T02:32:34;2.13;;;1.30;;
18455;SDS011;9357;49.900;8.208;2022-08-01T02:34:12;3.83;;;1.30;;
18455;SDS011;9357;49.900;8.208;2022-08-01T02:35:50;1.60;;;1.30;;
18455;SDS011;9357;49.900;8.208;2022-08-01T02:37:46;2.17;;;1.40;;
18455;SDS011;9357;49.900;8.208;2022-08-01T02:39:20;1.53;;;1.20;;
18455;SDS011;9357;49.900;8.208;2022-08-01T02:40:55;3.10;;;1.20;;
18455;SDS011;9357;49.900;8.208;2022-08-01T02:42:31;1.37;;;1.27;;
18455;SDS011;9357;49.900;8.208;2022-08-01T02:44:07;1.40;;;1.30;;
18455;SDS011;9357;49.900;8.208;2022-08-01T02:45:42;1.50;;;1.30;;
18455;SDS011;9357;49.900;8.208;2022-08-01T02:47:19;2.00;;;1.40;;
18455;SDS011;9357;49.900;8.208;2022-08-01T02:48:54;1.50;;;1.40;;
18455;SDS011;9357;49.900;8.208;2022-08-01T02:50:32;2.67;;;1.30;;
18455;SDS011;9357;49.900;8.208;2022-08-01T02:52:07;2.67;;;1.30;;
18455;SDS011;9357;49.900;8.208;2022-08-01T02:53:43;2.77;;;1.43;;
18455;SDS011;9357;49.900;8.208;2022-08-01T02:55:18;1.60;;;1.50;;
18455;SDS011;9357;49.900;8.208;2022-08-01T02:56:53;1.73;;;1.40;;
18455;SDS011;9357;49.900;8.208;2022-08-01T02:58:28;1.50;;;1.40;;
18455;SDS011;9357;49.900;8.208;2022-08-01T03:00:02;1.57;;;1.47;;
18455;SDS011;9357;49.900;8.208;2022-08-01T03:01:36;1.43;;;1.33;;
18455;SDS011;9357;49.900;8.208;2022-08-01T03:03:12;1.60;;;1.40;;
18455;SDS011;9357;49.900;8.208;2022-08-01T03:04:47;1.50;;;1.40;;
18455;SDS011;9357;49.900;8.208;2022-08-01T03:06:28;1.33;;;1.23;;
18455;SDS011;9357;49.900;8.208;2022-08-01T03:08:02;1.50;;;1.40;;
18455;SDS011;9357;49.900;8.208;2022-08-01T03:09:45;1.40;;;1.30;;
18455;SDS011;9357;49.900;8.208;2022-08-01T03:11:19;1.33;;;1.23;;
18455;SDS011;9357;49.900;8.208;2022-08-01T03:12:54;2.27;;;1.40;;
18455;SDS011;9357;49.900;8.208;2022-08-01T03:14:29;1.53;;;1.43;;
18455;SDS011;9357;49.900;8.208;2022-08-01T03:16:06;1.80;;;1.40;;
18455;SDS011;9357;49.900;8.208;2022-08-01T03:17:40;1.60;;;1.50;;
18455;SDS011;9357;49.900;8.208;2022-08-01T03:19:15;1.67;;;1.40;;
18455;SDS011;9357;49.900;8.208;2022-08-01T03:20:49;2.77;;;1.53;;
18455;SDS011;9357;49.900;8.208;2022-08-01T03:22:26;1.50;;;1.40;;
18455;SDS011;9357;49.900;8.208;2022-08-01T03:24:01;1.27;;;1.27;;
18455;SDS011;9357;49.900;8.208;2022-08-01T03:25:36;1.93;;;1.40;;
18455;SDS011;9357;49.900;8.208;2022-08-01T03:27:13;1.53;;;1.40;;
18455;SDS011;9357;49.900;8.208;2022-08-01T03:28:47;1.50;;;1.50;;
18455;SDS011;9357;49.900;8.208;2022-08-01T03:30:22;2.33;;;1.70;;
18455;SDS011;9357;49.900;8.208;2022-08-01T03:31:57;1.50;;;1.40;;
18455;SDS011;9357;49.900;8.208;2022-08-01T03:33:31;1.53;;;1.43;;
18455;SDS011;9357;49.900;8.208;2022-08-01T03:35:04;1.40;;;1.30;;
18455;SDS011;9357;49.900;8.208;2022-08-01T03:36:40;1.60;;;1.40;;
18455;SDS011;9357;49.900;8.208;2022-08-01T03:38:22;1.50;;;1.30;;
18455;SDS011;9357;49.900;8.208;2022-08-01T03:39:58;1.50;;;1.40;;
18455;SDS011;9357;49.900;8.208;2022-08-01T03:41:34;1.53;;;1.40;;
18455;SDS011;9357;49.900;8.208;2022-08-01T03:43:14;1.40;;;1.30;;
18455;SDS011;9357;49.900;8.208;2022-08-01T03:44:51;1.60;;;1.50;;
18455;SDS011;9357;49.900;8.208;2022-08-01T03:46:27;1.70;;;1.60;;
18455;SDS011;9357;49.900;8.208;2022-08-01T03:48:08;1.57;;;1.47;;
18455;SDS011;9357;49.900;8.208;2022-08-01T03:49:44;1.23;;;1.10;;
18455;SDS011;9357;49.900;8.208;2022-08-01T03:51:20;1.70;;;1.60;;
18455;SDS011;9357;49.900;8.208;2022-08-01T03:52:55;2.00;;;1.57;;
18455;SDS011;9357;49.900;8.208;2022-08-01T03:54:33;2.73;;;1.53;;
18455;SDS011;9357;49.900;8.208;2022-08-01T03:56:08;2.63;;;1.30;;
18455;SDS011;9357;49.900;8.208;2022-08-01T03:57:42;1.20;;;1.10;;
18455;SDS011;9357;49.900;8.208;2022-08-01T03:59:16;2.13;;;1.63;;
18455;SDS011;9357;49.900;8.208;2022-08-01T04:00:50;2.27;;;1.70;;
18455;SDS011;9357;49.900;8.208;2022-08-01T04:02:23;1.60;;;1.50;;
18455;SDS011;9357;49.900;8.208;2022-08-01T04:03:57;2.23;;;1.50;;
18455;SDS011;9357;49.900;8.208;2022-08-01T04:05:30;3.10;;;1.50;;
18455;SDS011;9357;49.900;8.208;2022-08-01T04:07:03;1.60;;;1.50;;
18455;SDS011;9357;49.900;8.208;2022-08-01T04:08:38;3.10;;;1.40;;
18455;SDS011;9357;49.900;8.208;2022-08-01T04:10:13;1.77;;;1.47;;
18455;SDS011;9357;49.900;8.208;2022-08-01T04:11:46;1.97;;;1.73;;
18455;SDS011;9357;49.900;8.208;2022-08-01T04:13:19;2.70;;;1.97;;
18455;SDS011;9357;49.900;8.208;2022-08-01T04:14:52;2.40;;;1.53;;
18455;SDS011;9357;49.900;8.208;2022-08-01T04:16:25;1.73;;;1.53;;
18455;SDS011;9357;49.900;8.208;2022-08-01T04:17:59;1.70;;;1.60;;
18455;SDS011;9357;49.900;8.208;2022-08-01T04:19:32;3.03;;;1.60;;
18455;SDS011;9357;49.900;8.208;2022-08-01T04:21:04;4.07;;;1.37;;
18455;SDS011;9357;49.900;8.208;2022-08-01T04:22:37;3.57;;;1.60;;
18455;SDS011;9357;49.900;8.208;2022-08-01T04:24:12;6.13;;;1.70;;
18455;SDS011;9357;49.900;8.208;2022-08-01T04:25:51;4.00;;;1.50;;
18455;SDS011;9357;49.900;8.208;2022-08-01T04:27:26;3.00;;;1.60;;
18455;SDS011;9357;49.900;8.208;2022-08-01T04:29:21;2.23;;;1.40;;
18455;SDS011;9357;49.900;8.208;2022-08-01T04:30:56;1.67;;;1.50;;
18455;SDS011;9357;49.900;8.208;2022-08-01T04:32:33;1.43;;;1.40;;
18455;SDS011;9357;49.900;8.208;2022-08-01T04:34:09;1.80;;;1.70;;
18455;SDS011;9357;49.900;8.208;2022-08-01T04:35:45;3.33;;;1.60;;
18455;SDS011;9357;49.900;8.208;2022-08-01T04:37:34;1.93;;;1.60;;
18455;SDS011;9357;49.900;8.208;2022-08-01T04:39:08;1.70;;;1.47;;
18455;SDS011;9357;49.900;8.208;2022-08-01T04:40:42;2.80;;;1.60;;
18455;SDS011;9357;49.900;8.208;2022-08-01T04:42:18;2.20;;;1.60;;
18455;SDS011;9357;49.900;8.208;2022-08-01T04:44:00;2.57;;;1.30;;
18455;SDS011;9357;49.900;8.208;2022-08-01T04:45:34;6.00;;;1.60;;
18455;SDS011;9357;49.900;8.208;2022-08-01T04:47:07;2.47;;;1.70;;
18455;SDS011;9357;49.900;8.208;2022-08-01T04:48:42;1.53;;;1.40;;
18455;SDS011;9357;49.900;8.208;2022-08-01T04:50:15;1.60;;;1.50;;
18455;SDS011;9357;49.900;8.208;2022-08-01T04:51:49;1.70;;;1.57;;
18455;SDS011;9357;49.900;8.208;2022-08-01T04:53:23;2.00;;;1.80;;
18455;SDS011;9357;49.900;8.208;2022-08-01T04:54:57;2.70;;;1.60;;
18455;SDS011;9357;49.900;8.208;2022-08-01T04:56:29;2.57;;;1.60;;
18455;SDS011;9357;49.900;8.208;2022-08-01T04:58:06;2.67;;;1.43;;
18455;SDS011;9357;49.900;8.208;2022-08-01T04:59:44;2.53;;;1.60;;
18455;SDS011;9357;49.900;8.208;2022-08-01T05:01:17;1.50;;;1.40;;
18455;SDS011;9357;49.900;8.208;2022-08-01T05:02:50;2.10;;;1.50;;
18455;SDS011;9357;49.900;8.208;2022-08-01T05:04:23;2.73;;;1.60;;
18455;SDS011;9357;49.900;8.208;2022-08-01T05:05:58;1.83;;;1.63;;
18455;SDS011;9357;49.900;8.208;2022-08-01T05:07:31;2.10;;;1.73;;
18455;SDS011;9357;49.900;8.208;2022-08-01T05:09:15;1.73;;;1.63;;
18455;SDS011;9357;49.900;8.208;2022-08-01T05:10:48;1.70;;;1.60;;
18455;SDS011;9357;49.900;8.208;2022-08-01T05:12:21;1.70;;;1.60;;
18455;SDS011;9357;49.900;8.208;2022-08-01T05:13:55;2.43;;;1.50;;
18455;SDS011;9357;49.900;8.208;2022-08-01T05:15:28;1.70;;;1.60;;
18455;SDS011;9357;49.900;8.208;2022-08-01T05:17:02;3.53;;;1.53;;
18455;SDS011;9357;49.900;8.208;2022-08-01T05:18:37;2.43;;;1.77;;
18455;SDS011;9357;49.900;8.208;2022-08-01T05:20:11;2.23;;;1.50;;
18455;SDS011;9357;49.900;8.208;2022-08-01T05:21:44;1.90;;;1.80;;
18455;SDS011;9357;49.900;8.208;2022-08-01T05:23:17;3.37;;;1.80;;
18455;SDS011;9357;49.900;8.208;2022-08-01T05:25:10;1.87;;;1.50;;
18455;SDS011;9357;49.900;8.208;2022-08-01T05:26:50;2.80;;;1.80;;
18455;SDS011;9357;49.900;8.208;2022-08-01T05:28:23;2.07;;;1.40;;
18455;SDS011;9357;49.900;8.208;2022-08-01T05:29:57;1.53;;;1.40;;
18455;SDS011;9357;49.900;8.208;2022-08-01T05:31:30;3.17;;;1.40;;
18455;SDS011;9357;49.900;8.208;2022-08-01T05:33:05;1.83;;;1.60;;
18455;SDS011;9357;49.900;8.208;2022-08-01T05:34:38;1.70;;;1.60;;
18455;SDS011;9357;49.900;8.208;2022-08-01T05:36:10;2.27;;;1.53;;
18455;SDS011;9357;49.900;8.208;2022-08-01T05:37:43;4.00;;;1.73;;
18455;SDS011;9357;49.900;8.208;2022-08-01T05:39:16;2.43;;;1.70;;
18455;SDS011;9357;49.900;8.208;2022-08-01T05:40:49;1.47;;;1.37;;
18455;SDS011;9357;49.900;8.208;2022-08-01T05:42:22;1.57;;;1.47;;
18455;SDS011;9357;49.900;8.208;2022-08-01T05:43:54;2.07;;;1.73;;
18455;SDS011;9357;49.900;8.208;2022-08-01T05:45:29;2.17;;;1.60;;
18455;SDS011;9357;49.900;8.208;2022-08-01T05:47:02;2.97;;;1.60;;
18455;SDS011;9357;49.900;8.208;2022-08-01T05:48:35;1.80;;;1.70;;
18455;SDS011;9357;49.900;8.208;2022-08-01T05:50:08;2.13;;;1.60;;
18455;SDS011;9357;49.900;8.208;2022-08-01T05:51:41;1.63;;;1.50;;
18455;SDS011;9357;49.900;8.208;2022-08-01T05:53:14;1.63;;;1.43;;
18455;SDS011;9357;49.900;8.208;2022-08-01T05:54:46;2.93;;;1.50;;
18455;SDS011;9357;49.900;8.208;2022-08-01T05:56:19;1.87;;;1.40;;
18455;SDS011;9357;49.900;8.208;2022-08-01T05:57:53;1.40;;;1.30;;
18455;SDS011;9357;49.900;8.208;2022-08-01T05:59:26;1.87;;;1.67;;
18455;SDS011;9357;49.900;8.208;2022-08-01T06:01:00;1.67;;;1.57;;
18455;SDS011;9357;49.900;8.208;2022-08-01T06:02:33;1.77;;;1.67;;
18455;SDS011;9357;49.900;8.208;2022-08-01T06:04:06;1.70;;;1.60;;
18455;SDS011;9357;49.900;8.208;2022-08-01T06:05:38;1.73;;;1.63;;
18455;SDS011;9357;49.900;8.208;2022-08-01T06:07:11;2.67;;;1.70;;
18455;SDS011;9357;49.900;8.208;2022-08-01T06:08:44;2.43;;;1.83;;
18455;SDS011;9357;49.900;8.208;2022-08-01T06:10:17;1.97;;;1.70;;
18455;SDS011;9357;49.900;8.208;2022-08-01T06:11:50;3.47;;;1.77;;
18455;SDS011;9357;49.900;8.208;2022-08-01T06:13:23;4.13;;;1.63;;
18455;SDS011;9357;49.900;8.208;2022-08-01T06:14:56;2.50;;;1.70;;
18455;SDS011;9357;49.900;8.208;2022-08-01T06:16:31;1.97;;;1.50;;
18455;SDS011;9357;49.900;8.208;2022-08-01T06:18:04;2.03;;;1.40;;
18455;SDS011;9357;49.900;8.208;2022-08-01T06:19:37;3.00;;;1.73;;
18455;SDS011;9357;49.900;8.208;2022-08-01T06:21:10;2.33;;;1.60;;
18455;SDS011;9357;49.900;8.208;2022-08-01T06:22:42;2.37;;;1.60;;
18455;SDS011;9357;49.900;8.208;2022-08-01T06:24:22;2.17;;;1.30;;
18455;SDS011;9357;49.900;8.208;2022-08-01T06:25:55;3.03;;;1.57;;
18455;SDS011;9357;49.900;8.208;2022-08-01T06:27:29;1.57;;;1.47;;
18455;SDS011;9357;49.900;8.208;2022-08-01T06:29:02;1.87;;;1.50;;
18455;SDS011;9357;49.900;8.208;2022-08-01T06:30:35;3.17;;;1.73;;
18455;SDS011;9357;49.900;8.208;2022-08-01T06:32:08;1.67;;;1.57;;
18455;SDS011;9357;49.900;8.208;2022-08-01T06:33:55;1.83;;;1.53;;
18455;SDS011;9357;49.900;8.208;2022-08-01T06:35:28;1.97;;;1.50;;
18455;SDS011;9357;49.900;8.208;2022-08-01T06:37:01;1.70;;;1.60;;
18455;SDS011;9357;49.900;8.208;2022-08-01T06:38:37;1.73;;;1.40;;
18455;SDS011;9357;49.900;8.208;2022-08-01T06:40:10;1.50;;;1.40;;
18455;SDS011;9357;49.900;8.208;2022-08-01T06:41:47;1.40;;;1.30;;
18455;SDS011;9357;49.900;8.208;2022-08-01T06:43:20;1.87;;;1.60;;
18455;SDS011;9357;49.900;8.208;2022-08-01T06:44:53;1.67;;;1.50;;
18455;SDS011;9357;49.900;8.208;2022-08-01T06:46:26;1.83;;;1.53;;
18455;SDS011;9357;49.900;8.208;2022-08-01T06:48:03;1.53;;;1.43;;
18455;SDS011;9357;49.900;8.208;2022-08-01T06:49:36;1.87;;;1.53;;
18455;SDS011;9357;49.900;8.208;2022-08-01T06:51:10;1.70;;;1.60;;
18455;SDS011;9357;49.900;8.208;2022-08-01T06:52:46;1.80;;;1.67;;
18455;SDS011;9357;49.900;8.208;2022-08-01T06:54:19;1.87;;;1.70;;
18455;SDS011;9357;49.900;8.208;2022-08-01T06:55:52;1.60;;;1.50;;
18455;SDS011;9357;49.900;8.208;2022-08-01T06:57:25;1.80;;;1.70;;
18455;SDS011;9357;49.900;8.208;2022-08-01T06:58:57;1.60;;;1.50;;
18455;SDS011;9357;49.900;8.208;2022-08-01T07:00:32;1.33;;;1.23;;
18455;SDS011;9357;49.900;8.208;2022-08-01T07:02:05;1.60;;;1.50;;
18455;SDS011;9357;49.900;8.208;2022-08-01T07:03:40;1.80;;;1.70;;
18455;SDS011;9357;49.900;8.208;2022-08-01T07:05:25;1.50;;;1.40;;
18455;SDS011;9357;49.900;8.208;2022-08-01T07:06:58;2.83;;;1.77;;
18455;SDS011;9357;49.900;8.208;2022-08-01T07:08:31;1.90;;;1.80;;
18455;SDS011;9357;49.900;8.208;2022-08-01T07:10:04;1.80;;;1.70;;
18455;SDS011;9357;49.900;8.208;2022-08-01T07:11:39;1.80;;;1.70;;
18455;SDS011;9357;49.900;8.208;2022-08-01T07:13:12;1.80;;;1.70;;
18455;SDS011;9357;49.900;8.208;2022-08-01T07:14:47;2.20;;;1.80;;
18455;SDS011;9357;49.900;8.208;2022-08-01T07:16:20;2.23;;;2.00;;
18455;SDS011;9357;49.900;8.208;2022-08-01T07:17:53;2.93;;;1.97;;
18455;SDS011;9357;49.900;8.208;2022-08-01T07:19:27;1.80;;;1.70;;
18455;SDS011;9357;49.900;8.208;2022-08-01T07:21:00;1.90;;;1.67;;
18455;SDS011;9357;49.900;8.208;2022-08-01T07:22:35;2.27;;;2.10;;
18455;SDS011;9357;49.900;8.208;2022-08-01T07:24:09;2.07;;;1.90;;
18455;SDS011;9357;49.900;8.208;2022-08-01T07:25:45;2.10;;;1.90;;
18455;SDS011;9357;49.900;8.208;2022-08-01T07:27:23;2.30;;;2.20;;
18455;SDS011;9357;49.900;8.208;2022-08-01T07:28:56;2.13;;;2.00;;
18455;SDS011;9357;49.900;8.208;2022-08-01T07:30:29;2.20;;;2.10;;
18455;SDS011;9357;49.900;8.208;2022-08-01T07:32:02;2.40;;;2.20;;
18455;SDS011;9357;49.900;8.208;2022-08-01T07:33:36;2.23;;;2.03;;
18455;SDS011;9357;49.900;8.208;2022-08-01T07:35:20;2.40;;;2.20;;
18455;SDS011;9357;49.900;8.208;2022-08-01T07:36:53;2.60;;;2.40;;
18455;SDS011;9357;49.900;8.208;2022-08-01T07:38:26;2.30;;;2.10;;
18455;SDS011;9357;49.900;8.208;2022-08-01T07:39:59;3.27;;;2.40;;
18455;SDS011;9357;49.900;8.208;2022-08-01T07:41:32;2.30;;;2.10;;
18455;SDS011;9357;49.900;8.208;2022-08-01T07:43:25;2.30;;;2.10;;
18455;SDS011;9357;49.900;8.208;2022-08-01T07:44:58;2.30;;;2.10;;
18455;SDS011;9357;49.900;8.208;2022-08-01T07:46:31;3.43;;;2.23;;
18455;SDS011;9357;49.900;8.208;2022-08-01T07:48:04;2.20;;;2.10;;
18455;SDS011;9357;49.900;8.208;2022-08-01T07:49:39;2.00;;;1.90;;
18455;SDS011;9357;49.900;8.208;2022-08-01T07:51:13;2.10;;;1.90;;
18455;SDS011;9357;49.900;8.208;2022-08-01T07:52:46;2.07;;;1.97;;
18455;SDS011;9357;49.900;8.208;2022-08-01T07:54:19;2.00;;;1.83;;
18455;SDS011;9357;49.900;8.208;2022-08-01T07:56:04;2.10;;;1.90;;
18455;SDS011;9357;49.900;8.208;2022-08-01T07:57:37;2.00;;;1.80;;
18455;SDS011;9357;49.900;8.208;2022-08-01T07:59:10;2.03;;;1.83;;
18455;SDS011;9357;49.900;8.208;2022-08-01T08:00:53;2.20;;;2.10;;
18455;SDS011;9357;49.900;8.208;2022-08-01T08:02:26;2.13;;;1.93;;
18455;SDS011;9357;49.900;8.208;2022-08-01T08:03:59;2.27;;;2.07;;
18455;SDS011;9357;49.900;8.208;2022-08-01T08:05:32;2.77;;;1.90;;
18455;SDS011;9357;49.900;8.208;2022-08-01T08:07:27;3.27;;;2.10;;
18455;SDS011;9357;49.900;8.208;2022-08-01T08:09:00;3.47;;;2.37;;
18455;SDS011;9357;49.900;8.208;2022-08-01T08:10:34;2.63;;;2.40;;
18455;SDS011;9357;49.900;8.208;2022-08-01T08:12:07;2.40;;;2.20;;
18455;SDS011;9357;49.900;8.208;2022-08-01T08:13:40;2.10;;;2.00;;
18455;SDS011;9357;49.900;8.208;2022-08-01T08:15:13;2.23;;;2.00;;
18455;SDS011;9357;49.900;8.208;2022-08-01T08:16:46;2.17;;;1.97;;
18455;SDS011;9357;49.900;8.208;2022-08-01T08:18:19;2.27;;;2.07;;
18455;SDS011;9357;49.900;8.208;2022-08-01T08:19:52;2.33;;;2.00;;
18455;SDS011;9357;49.900;8.208;2022-08-01T08:21:25;2.07;;;1.97;;
18455;SDS011;9357;49.900;8.208;2022-08-01T08:23:00;2.70;;;2.50;;
18455;SDS011;9357;49.900;8.208;2022-08-01T08:25:13;2.17;;;1.97;;
18455;SDS011;9357;49.900;8.208;2022-08-01T08:26:46;2.13;;;2.03;;
18455;SDS011;9357;49.900;8.208;2022-08-01T08:28:22;2.13;;;2.00;;
18455;SDS011;9357;49.900;8.208;2022-08-01T08:29:58;2.67;;;2.10;;
18455;SDS011;9357;49.900;8.208;2022-08-01T08:31:31;2.30;;;2.10;;
18455;SDS011;9357;49.900;8.208;2022-08-01T08:33:23;2.10;;;2.00;;
18455;SDS011;9357;49.900;8.208;2022-08-01T08:34:55;2.70;;;2.00;;
18455;SDS011;9357;49.900;8.208;2022-08-01T08:36:28;2.20;;;2.10;;
18455;SDS011;9357;49.900;8.208;2022-08-01T08:38:03;2.83;;;2.10;;
18455;SDS011;9357;49.900;8.208;2022-08-01T08:39:37;3.50;;;2.27;;
18455;SDS011;9357;49.900;8.208;2022-08-01T08:41:12;2.30;;;2.20;;
18455;SDS011;9357;49.900;8.208;2022-08-01T08:42:51;2.10;;;2.00;;
18455;SDS011;9357;49.900;8.208;2022-08-01T08:44:25;2.20;;;2.00;;
18455;SDS011;9357;49.900;8.208;2022-08-01T08:45:58;2.00;;;1.90;;
18455;SDS011;9357;49.900;8.208;2022-08-01T08:47:31;1.83;;;1.73;;
18455;SDS011;9357;49.900;8.208;2022-08-01T08:49:06;1.90;;;1.80;;
18455;SDS011;9357;49.900;8.208;2022-08-01T08:50:41;2.27;;;2.00;;
18455;SDS011;9357;49.900;8.208;2022-08-01T08:52:15;4.17;;;1.80;;
18455;SDS011;9357;49.900;8.208;2022-08-01T08:53:51;2.07;;;1.97;;
18455;SDS011;9357;49.900;8.208;2022-08-01T08:55:27;2.10;;;2.00;;
18455;SDS011;9357;49.900;8.208;2022-08-01T08:57:00;2.33;;;2.23;;
18455;SDS011;9357;49.900;8.208;2022-08-01T08:58:33;2.30;;;2.10;;
18455;SDS011;9357;49.900;8.208;2022-08-01T09:00:09;2.20;;;2.10;;
18455;SDS011;9357;49.900;8.208;2022-08-01T09:01:43;2.67;;;2.40;;
18455;SDS011;9357;49.900;8.208;2022-08-01T09:03:16;2.30;;;2.20;;
18455;SDS011;9357;49.900;8.208;2022-08-01T09:04:49;2.30;;;2.20;;
18455;SDS011;9357;49.900;8.208;2022-08-01T09:06:22;3.30;;;2.40;;
18455;SDS011;9357;49.900;8.208;2022-08-01T09:07:57;2.50;;;2.30;;
18455;SDS011;9357;49.900;8.208;2022-08-01T09:09:31;2.20;;;2.00;;
18455;SDS011;9357;49.900;8.208;2022-08-01T09:11:11;2.43;;;2.33;;
18455;SDS011;9357;49.900;8.208;2022-08-01T09:13:03;2.40;;;2.20;;
18455;SDS011;9357;49.900;8.208;2022-08-01T09:14:44;2.40;;;2.20;;
18455;SDS011;9357;49.900;8.208;2022-08-01T09:16:17;2.00;;;1.90;;
18455;SDS011;9357;49.900;8.208;2022-08-01T09:17:50;2.30;;;2.10;;
18455;SDS011;9357;49.900;8.208;2022-08-01T09:19:23;4.00;;;2.40;;
18455;SDS011;9357;49.900;8.208;2022-08-01T09:21:12;2.90;;;2.60;;
18455;SDS011;9357;49.900;8.208;2022-08-01T09:22:48;2.60;;;2.40;;
18455;SDS011;9357;49.900;8.208;2022-08-01T09:24:20;2.40;;;2.30;;
18455;SDS011;9357;49.900;8.208;2022-08-01T09:26:02;2.70;;;2.50;;
18455;SDS011;9357;49.900;8.208;2022-08-01T09:27:36;2.53;;;2.33;;
18455;SDS011;9357;49.900;8.208;2022-08-01T09:29:17;2.97;;;2.40;;
18455;SDS011;9357;49.900;8.208;2022-08-01T09:31:09;2.37;;;2.17;;
18455;SDS011;9357;49.900;8.208;2022-08-01T09:32:52;4.00;;;2.23;;
18455;SDS011;9357;49.900;8.208;2022-08-01T09:34:28;2.63;;;2.20;;
18455;SDS011;9357;49.900;8.208;2022-08-01T09:36:02;2.57;;;2.30;;
18455;SDS011;9357;49.900;8.208;2022-08-01T09:37:35;2.30;;;2.10;;
18455;SDS011;9357;49.900;8.208;2022-08-01T09:39:18;2.23;;;2.03;;
18455;SDS011;9357;49.900;8.208;2022-08-01T09:40:52;1.90;;;1.80;;
18455;SDS011;9357;49.900;8.208;2022-08-01T09:42:30;1.90;;;1.80;;
18455;SDS011;9357;49.900;8.208;2022-08-01T09:44:03;2.00;;;1.90;;